sensor_id;sensor_type;location;lat;lon;timestamp;P1;durP1;ratioP1;P2;durP2;ratioP2
26598;SDS011;14240;51.064;16.612;2022-08-24T00:02:19;78.68;;;34.00;;
26598;SDS011;14240;51.064;16.612;2022-08-24T00:04:45;77.10;;;34.88;;
26598;SDS011;14240;51.064;16.612;2022-08-24T00:07:11;80.85;;;33.90;;
26598;SDS011;14240;51.064;16.612;2022-08-24T00:09:37;79.25;;;35.67;;
26598;SDS011;14240;51.064;16.612;2022-08-24T00:12:03;74.97;;;33.72;;
26598;SDS011;14240;51.064;16.612;2022-08-24T00:14:29;81.35;;;33.88;;
26598;SDS011;14240;51.064;16.612;2022-08-24T00:16:55;82.97;;;35.50;;
26598;SDS011;14240;51.064;16.612;2022-08-24T00:19:22;87.38;;;37.95;;
26598;SDS011;14240;51.064;16.612;2022-08-24T00:21:48;85.00;;;36.88;;
26598;SDS011;14240;51.064;16.612;2022-08-24T00:24:14;87.80;;;36.75;;
26598;SDS011;14240;51.064;16.612;2022-08-24T00:26:40;87.85;;;36.97;;
26598;SDS011;14240;51.064;16.612;2022-08-24T00:29:05;90.13;;;38.30;;
26598;SDS011;14240;51.064;16.612;2022-08-24T00:31:31;84.65;;;37.97;;
26598;SDS011;14240;51.064;16.612;2022-08-24T00:33:57;90.13;;;37.35;;
26598;SDS011;14240;51.064;16.612;2022-08-24T00:36:23;94.63;;;38.38;;
26598;SDS011;14240;51.064;16.612;2022-08-24T00:38:49;92.28;;;38.50;;
26598;SDS011;14240;51.064;16.612;2022-08-24T00:41:16;103.57;;;37.08;;
26598;SDS011;14240;51.064;16.612;2022-08-24T00:43:55;99.75;;;37.55;;
26598;SDS011;14240;51.064;16.612;2022-08-24T00:49:03;95.93;;;36.13;;
26598;SDS011;14240;51.064;16.612;2022-08-24T00:51:33;95.72;;;37.63;;
26598;SDS011;14240;51.064;16.612;2022-08-24T00:54:14;97.45;;;37.88;;
26598;SDS011;14240;51.064;16.612;2022-08-24T00:56:43;100.97;;;39.25;;
26598;SDS011;14240;51.064;16.612;2022-08-24T00:59:14;111.50;;;39.72;;
26598;SDS011;14240;51.064;16.612;2022-08-24T01:01:44;106.45;;;42.53;;
26598;SDS011;14240;51.064;16.612;2022-08-24T01:06:41;96.10;;;36.83;;
26598;SDS011;14240;51.064;16.612;2022-08-24T01:09:07;111.22;;;39.83;;
26598;SDS011;14240;51.064;16.612;2022-08-24T01:11:32;117.28;;;41.70;;
26598;SDS011;14240;51.064;16.612;2022-08-24T01:13:59;103.88;;;38.67;;
26598;SDS011;14240;51.064;16.612;2022-08-24T01:19:15;98.30;;;38.60;;
26598;SDS011;14240;51.064;16.612;2022-08-24T01:24:45;116.63;;;40.10;;
26598;SDS011;14240;51.064;16.612;2022-08-24T01:27:11;116.15;;;41.92;;
26598;SDS011;14240;51.064;16.612;2022-08-24T01:29:40;115.07;;;38.75;;
26598;SDS011;14240;51.064;16.612;2022-08-24T01:32:09;117.35;;;39.10;;
26598;SDS011;14240;51.064;16.612;2022-08-24T01:34:35;109.82;;;38.90;;
26598;SDS011;14240;51.064;16.612;2022-08-24T01:37:02;133.43;;;42.72;;
26598;SDS011;14240;51.064;16.612;2022-08-24T01:39:30;105.53;;;39.10;;
26598;SDS011;14240;51.064;16.612;2022-08-24T01:42:04;121.05;;;41.10;;
26598;SDS011;14240;51.064;16.612;2022-08-24T01:44:32;141.25;;;41.50;;
26598;SDS011;14240;51.064;16.612;2022-08-24T01:47:00;126.13;;;42.35;;
26598;SDS011;14240;51.064;16.612;2022-08-24T01:49:28;144.35;;;43.50;;
26598;SDS011;14240;51.064;16.612;2022-08-24T01:51:59;132.05;;;42.20;;
26598;SDS011;14240;51.064;16.612;2022-08-24T01:54:25;142.60;;;43.90;;
26598;SDS011;14240;51.064;16.612;2022-08-24T01:56:52;142.07;;;42.00;;
26598;SDS011;14240;51.064;16.612;2022-08-24T01:59:18;125.47;;;42.67;;
26598;SDS011;14240;51.064;16.612;2022-08-24T02:01:47;135.05;;;43.25;;
26598;SDS011;14240;51.064;16.612;2022-08-24T02:04:15;138.55;;;43.85;;
26598;SDS011;14240;51.064;16.612;2022-08-24T02:06:42;137.43;;;43.65;;
26598;SDS011;14240;51.064;16.612;2022-08-24T02:09:09;122.53;;;42.88;;
26598;SDS011;14240;51.064;16.612;2022-08-24T02:11:36;148.90;;;44.78;;
26598;SDS011;14240;51.064;16.612;2022-08-24T02:14:02;121.85;;;42.42;;
26598;SDS011;14240;51.064;16.612;2022-08-24T02:16:29;135.13;;;43.00;;
26598;SDS011;14240;51.064;16.612;2022-08-24T02:18:55;124.88;;;41.63;;
26598;SDS011;14240;51.064;16.612;2022-08-24T02:21:21;140.10;;;44.53;;
26598;SDS011;14240;51.064;16.612;2022-08-24T02:23:47;125.50;;;43.83;;
26598;SDS011;14240;51.064;16.612;2022-08-24T02:26:13;122.00;;;42.28;;
26598;SDS011;14240;51.064;16.612;2022-08-24T02:28:39;119.63;;;43.75;;
26598;SDS011;14240;51.064;16.612;2022-08-24T02:31:05;109.32;;;42.08;;
26598;SDS011;14240;51.064;16.612;2022-08-24T02:33:33;111.90;;;39.97;;
26598;SDS011;14240;51.064;16.612;2022-08-24T02:36:00;111.70;;;43.00;;
26598;SDS011;14240;51.064;16.612;2022-08-24T02:38:26;97.25;;;40.38;;
26598;SDS011;14240;51.064;16.612;2022-08-24T02:40:52;107.13;;;41.97;;
26598;SDS011;14240;51.064;16.612;2022-08-24T02:43:18;102.55;;;40.10;;
26598;SDS011;14240;51.064;16.612;2022-08-24T02:45:44;108.88;;;42.88;;
26598;SDS011;14240;51.064;16.612;2022-08-24T02:48:11;102.22;;;41.50;;
26598;SDS011;14240;51.064;16.612;2022-08-24T02:50:41;102.50;;;40.77;;
26598;SDS011;14240;51.064;16.612;2022-08-24T02:53:09;102.82;;;41.13;;
26598;SDS011;14240;51.064;16.612;2022-08-24T02:55:38;116.70;;;41.80;;
26598;SDS011;14240;51.064;16.612;2022-08-24T02:58:05;112.85;;;40.85;;
26598;SDS011;14240;51.064;16.612;2022-08-24T03:00:31;107.13;;;41.78;;
26598;SDS011;14240;51.064;16.612;2022-08-24T03:02:57;93.38;;;40.72;;
26598;SDS011;14240;51.064;16.612;2022-08-24T03:05:23;100.82;;;41.72;;
26598;SDS011;14240;51.064;16.612;2022-08-24T03:07:49;103.80;;;41.23;;
26598;SDS011;14240;51.064;16.612;2022-08-24T03:10:16;104.38;;;40.40;;
26598;SDS011;14240;51.064;16.612;2022-08-24T03:12:41;86.32;;;38.35;;
26598;SDS011;14240;51.064;16.612;2022-08-24T03:15:08;93.00;;;37.63;;
26598;SDS011;14240;51.064;16.612;2022-08-24T03:17:35;99.35;;;39.65;;
26598;SDS011;14240;51.064;16.612;2022-08-24T03:20:02;85.63;;;38.40;;
26598;SDS011;14240;51.064;16.612;2022-08-24T03:22:31;79.72;;;35.88;;
26598;SDS011;14240;51.064;16.612;2022-08-24T03:24:58;97.43;;;39.53;;
26598;SDS011;14240;51.064;16.612;2022-08-24T03:27:23;95.72;;;37.97;;
26598;SDS011;14240;51.064;16.612;2022-08-24T03:29:49;88.25;;;38.35;;
26598;SDS011;14240;51.064;16.612;2022-08-24T03:32:15;91.97;;;37.22;;
26598;SDS011;14240;51.064;16.612;2022-08-24T03:34:41;85.40;;;37.30;;
26598;SDS011;14240;51.064;16.612;2022-08-24T03:37:07;83.20;;;36.00;;
26598;SDS011;14240;51.064;16.612;2022-08-24T03:39:33;100.47;;;40.33;;
26598;SDS011;14240;51.064;16.612;2022-08-24T03:41:59;86.20;;;36.20;;
26598;SDS011;14240;51.064;16.612;2022-08-24T03:44:25;97.78;;;37.08;;
26598;SDS011;14240;51.064;16.612;2022-08-24T03:46:51;97.95;;;35.05;;
26598;SDS011;14240;51.064;16.612;2022-08-24T03:49:17;103.82;;;38.15;;
26598;SDS011;14240;51.064;16.612;2022-08-24T03:51:43;113.05;;;37.53;;
26598;SDS011;14240;51.064;16.612;2022-08-24T03:54:09;113.40;;;40.42;;
26598;SDS011;14240;51.064;16.612;2022-08-24T03:56:36;100.38;;;36.38;;
26598;SDS011;14240;51.064;16.612;2022-08-24T03:59:03;133.70;;;42.22;;
26598;SDS011;14240;51.064;16.612;2022-08-24T04:01:29;139.43;;;43.08;;
26598;SDS011;14240;51.064;16.612;2022-08-24T04:03:55;174.90;;;47.70;;
26598;SDS011;14240;51.064;16.612;2022-08-24T04:06:21;148.15;;;46.42;;
26598;SDS011;14240;51.064;16.612;2022-08-24T04:08:47;137.00;;;46.95;;
26598;SDS011;14240;51.064;16.612;2022-08-24T04:11:15;165.07;;;49.63;;
26598;SDS011;14240;51.064;16.612;2022-08-24T04:13:43;150.07;;;45.40;;
26598;SDS011;14240;51.064;16.612;2022-08-24T04:16:10;148.18;;;50.15;;
26598;SDS011;14240;51.064;16.612;2022-08-24T04:21:03;148.43;;;46.78;;
26598;SDS011;14240;51.064;16.612;2022-08-24T04:23:30;207.98;;;52.55;;
26598;SDS011;14240;51.064;16.612;2022-08-24T04:28:26;151.20;;;45.85;;
26598;SDS011;14240;51.064;16.612;2022-08-24T04:30:52;151.93;;;46.90;;
26598;SDS011;14240;51.064;16.612;2022-08-24T04:33:18;154.35;;;47.58;;
26598;SDS011;14240;51.064;16.612;2022-08-24T04:35:45;156.60;;;45.92;;
26598;SDS011;14240;51.064;16.612;2022-08-24T04:38:12;139.45;;;46.53;;
26598;SDS011;14240;51.064;16.612;2022-08-24T04:40:40;161.80;;;47.20;;
26598;SDS011;14240;51.064;16.612;2022-08-24T04:43:08;154.07;;;47.15;;
26598;SDS011;14240;51.064;16.612;2022-08-24T04:45:37;152.55;;;48.42;;
26598;SDS011;14240;51.064;16.612;2022-08-24T04:48:04;173.38;;;50.83;;
26598;SDS011;14240;51.064;16.612;2022-08-24T04:50:32;255.82;;;54.03;;
26598;SDS011;14240;51.064;16.612;2022-08-24T04:52:59;205.88;;;51.22;;
26598;SDS011;14240;51.064;16.612;2022-08-24T04:55:26;189.95;;;49.55;;
26598;SDS011;14240;51.064;16.612;2022-08-24T04:57:51;167.82;;;43.63;;
26598;SDS011;14240;51.064;16.612;2022-08-24T05:00:17;204.00;;;47.10;;
26598;SDS011;14240;51.064;16.612;2022-08-24T05:02:43;194.27;;;47.22;;
26598;SDS011;14240;51.064;16.612;2022-08-24T05:05:09;159.90;;;44.78;;
26598;SDS011;14240;51.064;16.612;2022-08-24T05:07:36;200.93;;;48.78;;
26598;SDS011;14240;51.064;16.612;2022-08-24T05:10:03;242.40;;;53.05;;
26598;SDS011;14240;51.064;16.612;2022-08-24T05:12:29;165.63;;;46.65;;
26598;SDS011;14240;51.064;16.612;2022-08-24T05:14:56;196.23;;;47.70;;
26598;SDS011;14240;51.064;16.612;2022-08-24T05:17:23;149.90;;;46.85;;
26598;SDS011;14240;51.064;16.612;2022-08-24T05:19:49;230.13;;;49.78;;
26598;SDS011;14240;51.064;16.612;2022-08-24T05:22:15;171.82;;;47.33;;
26598;SDS011;14240;51.064;16.612;2022-08-24T05:24:41;211.93;;;51.65;;
26598;SDS011;14240;51.064;16.612;2022-08-24T05:27:07;170.85;;;45.17;;
26598;SDS011;14240;51.064;16.612;2022-08-24T05:29:33;254.90;;;51.70;;
26598;SDS011;14240;51.064;16.612;2022-08-24T05:31:59;222.05;;;44.17;;
26598;SDS011;14240;51.064;16.612;2022-08-24T05:34:25;290.17;;;53.13;;
26598;SDS011;14240;51.064;16.612;2022-08-24T05:36:51;226.65;;;47.33;;
26598;SDS011;14240;51.064;16.612;2022-08-24T05:39:17;283.23;;;50.10;;
26598;SDS011;14240;51.064;16.612;2022-08-24T05:41:43;238.88;;;46.92;;
26598;SDS011;14240;51.064;16.612;2022-08-24T05:44:11;219.13;;;47.27;;
26598;SDS011;14240;51.064;16.612;2022-08-24T05:46:42;171.80;;;43.05;;
26598;SDS011;14240;51.064;16.612;2022-08-24T05:49:08;193.13;;;45.47;;
26598;SDS011;14240;51.064;16.612;2022-08-24T05:51:35;212.52;;;44.97;;
26598;SDS011;14240;51.064;16.612;2022-08-24T05:54:02;194.18;;;45.88;;
26598;SDS011;14240;51.064;16.612;2022-08-24T05:56:29;199.90;;;46.92;;
26598;SDS011;14240;51.064;16.612;2022-08-24T05:58:55;184.32;;;47.20;;
26598;SDS011;14240;51.064;16.612;2022-08-24T06:01:22;191.85;;;45.20;;
26598;SDS011;14240;51.064;16.612;2022-08-24T06:03:50;188.50;;;43.15;;
26598;SDS011;14240;51.064;16.612;2022-08-24T06:06:17;220.88;;;47.80;;
26598;SDS011;14240;51.064;16.612;2022-08-24T06:08:45;211.77;;;47.78;;
26598;SDS011;14240;51.064;16.612;2022-08-24T06:11:28;192.50;;;46.10;;
26598;SDS011;14240;51.064;16.612;2022-08-24T06:14:05;171.75;;;43.85;;
26598;SDS011;14240;51.064;16.612;2022-08-24T06:16:34;169.00;;;43.17;;
26598;SDS011;14240;51.064;16.612;2022-08-24T06:21:26;198.40;;;40.83;;
26598;SDS011;14240;51.064;16.612;2022-08-24T06:23:52;221.18;;;43.65;;
26598;SDS011;14240;51.064;16.612;2022-08-24T06:26:19;109.07;;;33.22;;
26598;SDS011;14240;51.064;16.612;2022-08-24T06:29:04;113.47;;;32.25;;
26598;SDS011;14240;51.064;16.612;2022-08-24T06:31:34;109.70;;;33.73;;
26598;SDS011;14240;51.064;16.612;2022-08-24T06:34:05;177.38;;;35.00;;
26598;SDS011;14240;51.064;16.612;2022-08-24T06:36:31;138.88;;;34.50;;
26598;SDS011;14240;51.064;16.612;2022-08-24T06:38:57;124.63;;;32.33;;
26598;SDS011;14240;51.064;16.612;2022-08-24T06:41:22;123.18;;;31.40;;
26598;SDS011;14240;51.064;16.612;2022-08-24T06:43:49;122.65;;;33.45;;
26598;SDS011;14240;51.064;16.612;2022-08-24T06:46:15;102.47;;;30.00;;
26598;SDS011;14240;51.064;16.612;2022-08-24T06:48:41;103.80;;;32.70;;
26598;SDS011;14240;51.064;16.612;2022-08-24T06:51:11;106.32;;;33.15;;
26598;SDS011;14240;51.064;16.612;2022-08-24T06:53:38;116.40;;;32.35;;
26598;SDS011;14240;51.064;16.612;2022-08-24T06:56:05;104.53;;;30.70;;
26598;SDS011;14240;51.064;16.612;2022-08-24T06:58:32;112.55;;;33.47;;
26598;SDS011;14240;51.064;16.612;2022-08-24T07:01:13;140.45;;;37.65;;
26598;SDS011;14240;51.064;16.612;2022-08-24T07:03:41;100.47;;;32.83;;
26598;SDS011;14240;51.064;16.612;2022-08-24T07:06:09;111.05;;;33.53;;
26598;SDS011;14240;51.064;16.612;2022-08-24T07:08:36;128.80;;;36.38;;
26598;SDS011;14240;51.064;16.612;2022-08-24T07:11:02;101.60;;;33.70;;
26598;SDS011;14240;51.064;16.612;2022-08-24T07:13:29;80.73;;;28.13;;
26598;SDS011;14240;51.064;16.612;2022-08-24T07:15:56;75.68;;;27.85;;
26598;SDS011;14240;51.064;16.612;2022-08-24T07:18:22;67.93;;;25.33;;
26598;SDS011;14240;51.064;16.612;2022-08-24T07:20:49;83.93;;;28.92;;
26598;SDS011;14240;51.064;16.612;2022-08-24T07:23:15;85.38;;;28.42;;
26598;SDS011;14240;51.064;16.612;2022-08-24T07:25:42;80.47;;;29.63;;
26598;SDS011;14240;51.064;16.612;2022-08-24T07:28:09;79.97;;;30.10;;
26598;SDS011;14240;51.064;16.612;2022-08-24T07:30:36;115.13;;;34.72;;
26598;SDS011;14240;51.064;16.612;2022-08-24T07:33:03;70.10;;;28.75;;
26598;SDS011;14240;51.064;16.612;2022-08-24T07:35:29;83.70;;;29.85;;
26598;SDS011;14240;51.064;16.612;2022-08-24T07:37:57;74.57;;;30.25;;
26598;SDS011;14240;51.064;16.612;2022-08-24T07:40:24;91.70;;;31.80;;
26598;SDS011;14240;51.064;16.612;2022-08-24T07:42:52;75.05;;;31.33;;
26598;SDS011;14240;51.064;16.612;2022-08-24T07:50:12;60.97;;;26.90;;
26598;SDS011;14240;51.064;16.612;2022-08-24T07:52:39;71.07;;;28.50;;
26598;SDS011;14240;51.064;16.612;2022-08-24T07:55:07;59.33;;;27.63;;
26598;SDS011;14240;51.064;16.612;2022-08-24T07:57:33;63.50;;;27.20;;
26598;SDS011;14240;51.064;16.612;2022-08-24T07:59:59;59.15;;;27.15;;
26598;SDS011;14240;51.064;16.612;2022-08-24T08:02:26;56.50;;;24.80;;
26598;SDS011;14240;51.064;16.612;2022-08-24T08:04:55;55.03;;;27.15;;
26598;SDS011;14240;51.064;16.612;2022-08-24T08:07:21;57.42;;;27.30;;
26598;SDS011;14240;51.064;16.612;2022-08-24T08:09:47;51.95;;;26.98;;
26598;SDS011;14240;51.064;16.612;2022-08-24T08:12:13;47.58;;;23.38;;
26598;SDS011;14240;51.064;16.612;2022-08-24T08:14:40;45.10;;;21.23;;
26598;SDS011;14240;51.064;16.612;2022-08-24T08:17:06;47.03;;;23.92;;
26598;SDS011;14240;51.064;16.612;2022-08-24T08:19:32;50.53;;;24.55;;
26598;SDS011;14240;51.064;16.612;2022-08-24T08:21:58;34.28;;;19.13;;
26598;SDS011;14240;51.064;16.612;2022-08-24T08:24:42;35.45;;;21.75;;
26598;SDS011;14240;51.064;16.612;2022-08-24T08:27:09;43.33;;;21.75;;
26598;SDS011;14240;51.064;16.612;2022-08-24T08:29:36;35.75;;;21.50;;
26598;SDS011;14240;51.064;16.612;2022-08-24T08:32:07;36.75;;;21.95;;
26598;SDS011;14240;51.064;16.612;2022-08-24T08:34:34;38.05;;;22.08;;
26598;SDS011;14240;51.064;16.612;2022-08-24T08:36:59;38.45;;;22.00;;
26598;SDS011;14240;51.064;16.612;2022-08-24T08:39:27;33.63;;;18.40;;
26598;SDS011;14240;51.064;16.612;2022-08-24T08:59:17;39.60;;;20.60;;
26598;SDS011;14240;51.064;16.612;2022-08-24T09:10:38;40.63;;;24.35;;
26598;SDS011;14240;51.064;16.612;2022-08-24T09:29:25;36.88;;;21.50;;
26598;SDS011;14240;51.064;16.612;2022-08-24T09:40:43;36.22;;;22.40;;
26598;SDS011;14240;51.064;16.612;2022-08-24T09:46:21;30.95;;;20.25;;
26598;SDS011;14240;51.064;16.612;2022-08-24T10:14:15;24.88;;;14.52;;
26598;SDS011;14240;51.064;16.612;2022-08-24T10:16:59;25.02;;;14.32;;
26598;SDS011;14240;51.064;16.612;2022-08-24T10:22:31;29.45;;;17.67;;
26598;SDS011;14240;51.064;16.612;2022-08-24T10:31:09;22.10;;;14.13;;
26598;SDS011;14240;51.064;16.612;2022-08-24T10:33:50;33.53;;;17.42;;
26598;SDS011;14240;51.064;16.612;2022-08-24T10:36:52;29.55;;;17.02;;
26598;SDS011;14240;51.064;16.612;2022-08-24T10:53:37;22.65;;;15.52;;
26598;SDS011;14240;51.064;16.612;2022-08-24T10:56:07;29.83;;;13.93;;
26598;SDS011;14240;51.064;16.612;2022-08-24T11:11:43;23.43;;;13.40;;
26598;SDS011;14240;51.064;16.612;2022-08-24T11:14:24;27.60;;;15.50;;
26598;SDS011;14240;51.064;16.612;2022-08-24T11:16:53;23.98;;;14.63;;
26598;SDS011;14240;51.064;16.612;2022-08-24T11:19:44;22.77;;;14.27;;
26598;SDS011;14240;51.064;16.612;2022-08-24T11:24:56;20.02;;;14.07;;
26598;SDS011;14240;51.064;16.612;2022-08-24T11:27:47;23.27;;;14.23;;
26598;SDS011;14240;51.064;16.612;2022-08-24T11:32:45;24.17;;;15.38;;
26598;SDS011;14240;51.064;16.612;2022-08-24T11:35:22;24.38;;;14.85;;
26598;SDS011;14240;51.064;16.612;2022-08-24T11:37:49;28.77;;;19.15;;
26598;SDS011;14240;51.064;16.612;2022-08-24T11:40:19;29.50;;;17.20;;
26598;SDS011;14240;51.064;16.612;2022-08-24T11:45:36;25.88;;;16.98;;
26598;SDS011;14240;51.064;16.612;2022-08-24T11:53:31;28.35;;;19.40;;
26598;SDS011;14240;51.064;16.612;2022-08-24T12:06:28;31.55;;;16.52;;
26598;SDS011;14240;51.064;16.612;2022-08-24T12:12:21;26.45;;;14.85;;
26598;SDS011;14240;51.064;16.612;2022-08-24T12:22:59;29.60;;;15.45;;
26598;SDS011;14240;51.064;16.612;2022-08-24T12:25:30;33.03;;;15.07;;
26598;SDS011;14240;51.064;16.612;2022-08-24T12:28:18;27.98;;;13.80;;
26598;SDS011;14240;51.064;16.612;2022-08-24T12:31:07;23.00;;;11.05;;
26598;SDS011;14240;51.064;16.612;2022-08-24T12:33:43;27.58;;;12.73;;
26598;SDS011;14240;51.064;16.612;2022-08-24T12:36:24;27.27;;;12.80;;
26598;SDS011;14240;51.064;16.612;2022-08-24T12:39:00;21.42;;;12.30;;
26598;SDS011;14240;51.064;16.612;2022-08-24T12:41:35;25.13;;;12.65;;
26598;SDS011;14240;51.064;16.612;2022-08-24T12:44:12;16.45;;;11.40;;
26598;SDS011;14240;51.064;16.612;2022-08-24T12:46:40;21.05;;;11.30;;
26598;SDS011;14240;51.064;16.612;2022-08-24T12:49:23;19.58;;;11.00;;
26598;SDS011;14240;51.064;16.612;2022-08-24T12:52:12;19.45;;;12.35;;
26598;SDS011;14240;51.064;16.612;2022-08-24T13:00:34;17.05;;;10.63;;
26598;SDS011;14240;51.064;16.612;2022-08-24T13:06:06;17.23;;;11.27;;
26598;SDS011;14240;51.064;16.612;2022-08-24T13:08:43;24.98;;;13.15;;
26598;SDS011;14240;51.064;16.612;2022-08-24T13:11:26;25.13;;;12.40;;
26598;SDS011;14240;51.064;16.612;2022-08-24T13:19:11;23.90;;;15.25;;
26598;SDS011;14240;51.064;16.612;2022-08-24T13:32:06;27.30;;;14.10;;
26598;SDS011;14240;51.064;16.612;2022-08-24T13:34:43;30.92;;;17.45;;
26598;SDS011;14240;51.064;16.612;2022-08-24T13:37:14;24.58;;;16.55;;
26598;SDS011;14240;51.064;16.612;2022-08-24T13:53:04;35.10;;;17.25;;
26598;SDS011;14240;51.064;16.612;2022-08-24T13:55:50;26.77;;;15.75;;
26598;SDS011;14240;51.064;16.612;2022-08-24T14:00:56;20.17;;;13.15;;
26598;SDS011;14240;51.064;16.612;2022-08-24T14:09:00;19.98;;;14.55;;
26598;SDS011;14240;51.064;16.612;2022-08-24T14:11:40;24.90;;;15.18;;
26598;SDS011;14240;51.064;16.612;2022-08-24T14:25:23;24.90;;;15.20;;
26598;SDS011;14240;51.064;16.612;2022-08-24T14:35:42;26.00;;;14.70;;
26598;SDS011;14240;51.064;16.612;2022-08-24T14:45:59;25.17;;;13.82;;
26598;SDS011;14240;51.064;16.612;2022-08-24T14:54:24;29.98;;;16.60;;
26598;SDS011;14240;51.064;16.612;2022-08-24T15:00:22;24.95;;;12.93;;
26598;SDS011;14240;51.064;16.612;2022-08-24T15:03:14;18.65;;;10.93;;
26598;SDS011;14240;51.064;16.612;2022-08-24T15:06:07;21.67;;;10.43;;
26598;SDS011;14240;51.064;16.612;2022-08-24T15:08:44;24.00;;;11.25;;
26598;SDS011;14240;51.064;16.612;2022-08-24T15:11:11;19.73;;;11.75;;
26598;SDS011;14240;51.064;16.612;2022-08-24T15:13:46;19.38;;;13.40;;
26598;SDS011;14240;51.064;16.612;2022-08-24T15:19:25;20.17;;;13.82;;
26598;SDS011;14240;51.064;16.612;2022-08-24T15:24:39;18.98;;;12.20;;
26598;SDS011;14240;51.064;16.612;2022-08-24T15:32:18;17.73;;;13.35;;
26598;SDS011;14240;51.064;16.612;2022-08-24T15:37:15;20.42;;;15.27;;
26598;SDS011;14240;51.064;16.612;2022-08-24T15:39:50;23.45;;;14.98;;
26598;SDS011;14240;51.064;16.612;2022-08-24T15:42:16;28.40;;;15.10;;
26598;SDS011;14240;51.064;16.612;2022-08-24T15:44:43;23.48;;;14.75;;
26598;SDS011;14240;51.064;16.612;2022-08-24T15:47:17;22.67;;;14.40;;
26598;SDS011;14240;51.064;16.612;2022-08-24T15:55:42;23.65;;;14.65;;
26598;SDS011;14240;51.064;16.612;2022-08-24T15:58:20;24.23;;;14.35;;
26598;SDS011;14240;51.064;16.612;2022-08-24T16:00:59;20.10;;;13.85;;
26598;SDS011;14240;51.064;16.612;2022-08-24T16:04:08;24.48;;;12.30;;
26598;SDS011;14240;51.064;16.612;2022-08-24T16:06:40;22.10;;;13.77;;
26598;SDS011;14240;51.064;16.612;2022-08-24T16:12:05;19.40;;;12.95;;
26598;SDS011;14240;51.064;16.612;2022-08-24T16:14:46;21.85;;;13.82;;
26598;SDS011;14240;51.064;16.612;2022-08-24T16:17:34;26.05;;;14.15;;
26598;SDS011;14240;51.064;16.612;2022-08-24T16:20:04;23.02;;;15.35;;
26598;SDS011;14240;51.064;16.612;2022-08-24T16:22:46;28.83;;;13.60;;
26598;SDS011;14240;51.064;16.612;2022-08-24T16:27:53;18.45;;;10.55;;
26598;SDS011;14240;51.064;16.612;2022-08-24T16:30:26;21.50;;;12.13;;
26598;SDS011;14240;51.064;16.612;2022-08-24T16:33:01;16.58;;;11.10;;
26598;SDS011;14240;51.064;16.612;2022-08-24T16:35:26;17.98;;;10.25;;
26598;SDS011;14240;51.064;16.612;2022-08-24T16:37:53;17.92;;;10.57;;
26598;SDS011;14240;51.064;16.612;2022-08-24T16:40:20;25.55;;;11.48;;
26598;SDS011;14240;51.064;16.612;2022-08-24T16:42:46;17.57;;;10.40;;
26598;SDS011;14240;51.064;16.612;2022-08-24T16:45:14;18.77;;;11.98;;
26598;SDS011;14240;51.064;16.612;2022-08-24T16:47:43;25.25;;;12.93;;
26598;SDS011;14240;51.064;16.612;2022-08-24T16:50:11;23.50;;;13.32;;
26598;SDS011;14240;51.064;16.612;2022-08-24T16:52:38;18.67;;;12.50;;
26598;SDS011;14240;51.064;16.612;2022-08-24T16:55:04;24.92;;;13.27;;
26598;SDS011;14240;51.064;16.612;2022-08-24T16:57:30;18.02;;;10.90;;
26598;SDS011;14240;51.064;16.612;2022-08-24T17:00:00;21.75;;;11.98;;
26598;SDS011;14240;51.064;16.612;2022-08-24T17:02:30;22.15;;;13.40;;
26598;SDS011;14240;51.064;16.612;2022-08-24T17:04:55;26.77;;;15.30;;
26598;SDS011;14240;51.064;16.612;2022-08-24T17:07:24;21.85;;;12.38;;
26598;SDS011;14240;51.064;16.612;2022-08-24T17:09:52;21.65;;;13.10;;
26598;SDS011;14240;51.064;16.612;2022-08-24T17:12:19;21.88;;;14.63;;
26598;SDS011;14240;51.064;16.612;2022-08-24T17:14:45;23.52;;;15.70;;
26598;SDS011;14240;51.064;16.612;2022-08-24T17:17:12;24.85;;;15.02;;
26598;SDS011;14240;51.064;16.612;2022-08-24T17:19:40;22.02;;;14.13;;
26598;SDS011;14240;51.064;16.612;2022-08-24T17:22:06;20.30;;;13.73;;
26598;SDS011;14240;51.064;16.612;2022-08-24T17:24:32;18.55;;;13.57;;
26598;SDS011;14240;51.064;16.612;2022-08-24T17:26:58;22.13;;;13.80;;
26598;SDS011;14240;51.064;16.612;2022-08-24T17:29:25;19.20;;;14.07;;
26598;SDS011;14240;51.064;16.612;2022-08-24T17:31:50;24.85;;;14.18;;
26598;SDS011;14240;51.064;16.612;2022-08-24T17:34:19;26.15;;;14.52;;
26598;SDS011;14240;51.064;16.612;2022-08-24T17:36:50;23.15;;;14.27;;
26598;SDS011;14240;51.064;16.612;2022-08-24T17:39:18;28.00;;;14.13;;
26598;SDS011;14240;51.064;16.612;2022-08-24T17:41:44;19.45;;;13.68;;
26598;SDS011;14240;51.064;16.612;2022-08-24T17:44:12;22.77;;;15.80;;
26598;SDS011;14240;51.064;16.612;2022-08-24T17:46:41;18.35;;;13.48;;
26598;SDS011;14240;51.064;16.612;2022-08-24T17:49:09;23.85;;;14.50;;
26598;SDS011;14240;51.064;16.612;2022-08-24T17:51:36;20.42;;;14.50;;
26598;SDS011;14240;51.064;16.612;2022-08-24T17:54:02;24.52;;;14.90;;
26598;SDS011;14240;51.064;16.612;2022-08-24T17:56:29;24.30;;;14.65;;
26598;SDS011;14240;51.064;16.612;2022-08-24T17:58:55;23.07;;;14.13;;
26598;SDS011;14240;51.064;16.612;2022-08-24T18:01:39;23.25;;;14.95;;
26598;SDS011;14240;51.064;16.612;2022-08-24T18:04:05;24.27;;;15.90;;
26598;SDS011;14240;51.064;16.612;2022-08-24T18:06:31;26.27;;;15.93;;
26598;SDS011;14240;51.064;16.612;2022-08-24T18:08:58;26.33;;;16.73;;
26598;SDS011;14240;51.064;16.612;2022-08-24T18:11:30;29.70;;;16.73;;
26598;SDS011;14240;51.064;16.612;2022-08-24T18:13:55;25.40;;;15.73;;
26598;SDS011;14240;51.064;16.612;2022-08-24T18:16:22;27.55;;;16.23;;
26598;SDS011;14240;51.064;16.612;2022-08-24T18:18:52;25.58;;;17.08;;
26598;SDS011;14240;51.064;16.612;2022-08-24T18:21:18;31.60;;;17.92;;
26598;SDS011;14240;51.064;16.612;2022-08-24T18:23:45;32.60;;;19.52;;
26598;SDS011;14240;51.064;16.612;2022-08-24T18:26:13;55.53;;;32.40;;
26598;SDS011;14240;51.064;16.612;2022-08-24T18:28:43;42.33;;;25.45;;
26598;SDS011;14240;51.064;16.612;2022-08-24T18:31:08;25.52;;;15.45;;
26598;SDS011;14240;51.064;16.612;2022-08-24T18:33:34;39.85;;;21.80;;
26598;SDS011;14240;51.064;16.612;2022-08-24T18:36:00;35.30;;;20.52;;
26598;SDS011;14240;51.064;16.612;2022-08-24T18:38:26;30.88;;;18.58;;
26598;SDS011;14240;51.064;16.612;2022-08-24T18:40:51;27.70;;;16.70;;
26598;SDS011;14240;51.064;16.612;2022-08-24T18:43:17;28.80;;;17.70;;
26598;SDS011;14240;51.064;16.612;2022-08-24T18:45:46;29.88;;;16.90;;
26598;SDS011;14240;51.064;16.612;2022-08-24T18:48:12;27.00;;;15.25;;
26598;SDS011;14240;51.064;16.612;2022-08-24T18:50:38;32.00;;;19.02;;
26598;SDS011;14240;51.064;16.612;2022-08-24T18:53:03;29.67;;;16.65;;
26598;SDS011;14240;51.064;16.612;2022-08-24T18:55:29;29.58;;;18.30;;
26598;SDS011;14240;51.064;16.612;2022-08-24T18:57:55;27.33;;;16.83;;